KTSP/TSP METAR and TAF weather

Enter ICAO airport designator
Station Type Date Time Source
KTSP METAR 2019/08/19 01:35 UTC NOAA

KTSP 190135Z AUTO 31012G16KT 10SM CLR 26/03 A3000 RMK AO2


Station Type Date Time Source
KTSP Decoded METAR 2019/08/19 01:35 UTC NOAA

Station name not available
Aug 18, 2019 - 09:35 PM EDT / 2019.08.19 0135 UTC
Wind: from the NW (310 degrees) at 14 MPH (12 KT) gusting to 18 MPH (16 KT):0
Visibility: 10 mile(s):0
Sky conditions: clear
Temperature: 78 F (26 C)
Dew Point: 37 F (3 C)
Relative Humidity: 22%
Pressure (altimeter): 30 in. Hg (1015 hPa)
ob: KTSP 190135Z AUTO 31012G16KT 10SM CLR 26/03 A3000 RMK AO2
cycle: 1

Station Type Date Time Source
KTSP TAF UTC NOAA

Error!

Example: see airport list